Time;durP1;ratioP1;P1;durP2;ratioP2;P2;SDS_P1;SDS_P2;PMS_P1;PMS_P2;Temp;Humidity;BMP_temperature;BMP_pressure;BME280_temperature;BME280_humidity;BME280_pressure;Samples;Min_cycle;Max_cycle;Signal;HPM_P1;HPM_P2
2021/10/23 00:02:17;;;;;;;8.50;5.40;;;;;;;16.23;48.38;100523.11;117502;1182;23440;-57
2021/10/23 00:04:45;;;;;;;11.70;6.20;;;;;;;16.25;48.39;100525.33;117521;1183;23439;-56
2021/10/23 00:07:14;;;;;;;9.10;5.50;;;;;;;16.31;48.48;100522.48;117629;1184;21855;-56
2021/10/23 00:09:43;;;;;;;10.80;5.90;;;;;;;16.34;48.56;100518.84;117517;1183;23490;-58
2021/10/23 00:12:32;;;;;;;11.00;6.30;;;;;;;16.35;48.52;100520.20;117423;1185;21868;-58
2021/10/23 00:15:00;;;;;;;11.10;5.90;;;;;;;16.40;48.71;100521.62;117443;1183;23442;-57
2021/10/23 00:17:28;;;;;;;9.40;5.70;;;;;;;16.45;48.57;100521.98;117482;1184;23419;-57
2021/10/23 00:20:09;;;;;;;11.50;5.70;;;;;;;16.50;48.53;100523.24;117422;1182;24156;-56
2021/10/23 00:22:38;;;;;;;10.00;6.40;;;;;;;16.58;48.49;100524.91;117503;1182;22654;-57
2021/10/23 00:25:07;;;;;;;9.10;6.00;;;;;;;16.58;48.51;100525.62;117573;1184;23426;-58
2021/10/23 00:27:35;;;;;;;8.20;5.80;;;;;;;16.56;48.43;100524.09;117543;1183;22912;-58
2021/10/23 00:30:04;;;;;;;11.80;6.00;;;;;;;16.55;48.39;100526.61;117566;1185;23436;-58
2021/10/23 00:32:34;;;;;;;9.00;6.30;;;;;;;16.54;48.34;100526.33;117553;1179;22645;-58
2021/10/23 00:35:03;;;;;;;9.80;5.90;;;;;;;16.54;48.34;100527.56;117528;1185;21858;-58
2021/10/23 00:37:31;;;;;;;9.40;6.30;;;;;;;16.52;48.46;100524.42;117349;1183;23430;-59
2021/10/23 00:40:00;;;;;;;10.90;6.40;;;;;;;16.49;48.28;100518.85;117470;1179;21858;-56
2021/10/23 00:42:28;;;;;;;10.20;6.00;;;;;;;16.48;48.26;100516.05;117530;1179;23426;-59
2021/10/23 00:44:56;;;;;;;10.50;6.20;;;;;;;16.47;48.34;100511.32;117593;1182;23438;-57
2021/10/23 00:47:24;;;;;;;9.40;5.60;;;;;;;16.48;48.35;100504.89;117442;1183;24202;-56
2021/10/23 00:49:53;;;;;;;9.50;6.00;;;;;;;16.50;48.49;100503.05;117503;1182;24705;-56
2021/10/23 00:52:23;;;;;;;9.10;6.10;;;;;;;16.52;48.44;100509.74;117589;1182;21936;-56
2021/10/23 00:54:52;;;;;;;8.90;5.90;;;;;;;16.54;48.43;100507.36;117411;1182;24156;-59
2021/10/23 00:57:20;;;;;;;9.20;5.80;;;;;;;16.56;48.41;100508.15;117494;1185;22899;-57
2021/10/23 00:59:48;;;;;;;12.20;6.60;;;;;;;16.58;48.44;100513.23;117516;1186;21858;-56
2021/10/23 01:02:17;;;;;;;11.40;6.00;;;;;;;16.58;48.47;100516.60;117499;1184;23458;-56
2021/10/23 01:04:46;;;;;;;8.40;5.80;;;;;;;16.57;48.48;100518.20;117670;1176;21864;-56
2021/10/23 01:07:16;;;;;;;8.70;6.20;;;;;;;16.57;48.49;100512.38;117387;1185;23439;-58
2021/10/23 01:10:03;;;;;;;9.70;5.70;;;;;;;16.59;48.44;100511.41;117478;1176;23544;-56
2021/10/23 01:12:31;;;;;;;;;;;;;;;16.60;48.47;100515.30;117460;1182;23445;-57
2021/10/23 01:15:24;;;;;;;11.00;5.80;;;;;;;16.60;48.48;100521.15;117420;1185;22913;-56
2021/10/23 01:17:53;;;;;;;11.60;5.60;;;;;;;16.57;48.39;100518.41;117476;1183;23993;-56
2021/10/23 01:20:22;;;;;;;9.10;6.20;;;;;;;16.54;48.33;100522.41;117523;1182;23446;-57
2021/10/23 01:22:50;;;;;;;9.80;6.60;;;;;;;16.51;48.44;100518.60;117519;1185;22122;-56
2021/10/23 01:25:19;;;;;;;9.40;6.60;;;;;;;16.47;48.47;100521.39;117554;1185;21896;-57
2021/10/23 01:27:48;;;;;;;8.80;5.70;;;;;;;16.44;48.51;100521.49;117563;1184;21857;-56
2021/10/23 01:30:16;;;;;;;10.10;6.00;;;;;;;16.40;48.55;100518.10;117403;1186;21895;-56
2021/10/23 01:32:45;;;;;;;8.90;5.80;;;;;;;16.35;48.41;100514.90;117461;1186;22619;-56
2021/10/23 01:35:13;;;;;;;10.00;6.50;;;;;;;16.31;48.46;100521.58;117524;1180;22927;-56
2021/10/23 01:37:43;;;;;;;8.80;5.70;;;;;;;16.28;48.46;100520.98;117491;1182;22818;-58
2021/10/23 01:40:20;;;;;;;10.50;6.20;;;;;;;16.26;48.51;100514.69;117517;1185;21855;-56
2021/10/23 01:42:49;;;;;;;11.80;6.50;;;;;;;16.24;48.62;100516.89;117523;1182;23429;-56
2021/10/23 01:45:18;;;;;;;10.70;6.20;;;;;;;16.21;48.61;100517.49;117623;1176;21995;-58
2021/10/23 01:47:46;;;;;;;8.20;6.00;;;;;;;16.18;48.68;100517.58;117482;1182;23442;-56
2021/10/23 01:50:19;;;;;;;10.90;5.70;;;;;;;16.16;48.61;100515.18;117462;1185;21862;-58
2021/10/23 01:52:49;;;;;;;12.50;6.90;;;;;;;16.13;48.64;100518.64;117508;1186;21860;-56
2021/10/23 01:55:17;;;;;;;10.80;6.40;;;;;;;16.12;48.69;100522.94;117513;1183;22979;-56
2021/10/23 01:57:46;;;;;;;9.20;5.80;;;;;;;16.10;48.65;100526.03;117482;1183;23678;-58
2021/10/23 02:00:16;;;;;;;8.70;5.80;;;;;;;16.10;48.78;100528.88;117541;1185;21877;-56
2021/10/23 02:02:44;;;;;;;8.40;5.20;;;;;;;16.10;48.69;100531.33;117597;1185;21962;-58
2021/10/23 02:05:13;;;;;;;9.60;6.10;;;;;;;16.10;48.68;100532.73;117547;1183;23639;-56
2021/10/23 02:07:41;;;;;;;8.60;6.10;;;;;;;16.12;48.71;100526.65;117568;1184;21854;-58
2021/10/23 02:10:10;;;;;;;12.60;6.30;;;;;;;16.12;48.84;100529.99;117384;1182;23465;-58
2021/10/23 02:12:38;;;;;;;9.40;6.70;;;;;;;16.12;48.76;100534.24;117503;1182;22954;-57
2021/10/23 02:15:07;;;;;;;8.10;5.50;;;;;;;16.12;48.80;100544.35;117374;1185;21851;-57
2021/10/23 02:17:35;;;;;;;10.20;5.90;;;;;;;16.13;48.75;100546.98;117505;1185;23465;-58
2021/10/23 02:20:08;;;;;;;9.00;6.30;;;;;;;16.13;48.76;100553.16;117493;1183;22525;-56
2021/10/23 02:22:37;;;;;;;8.20;5.70;;;;;;;16.13;48.76;100551.92;117474;1185;22914;-56
2021/10/23 02:25:06;;;;;;;9.60;6.40;;;;;;;16.14;48.82;100553.11;117418;1182;24157;-56
2021/10/23 02:27:34;;;;;;;10.10;5.80;;;;;;;16.14;48.75;100549.95;117513;1179;21861;-56
2021/10/23 02:30:05;;;;;;;10.20;5.70;;;;;;;16.14;48.83;100552.43;117526;1186;23442;-57
2021/10/23 02:32:33;;;;;;;9.10;5.70;;;;;;;16.15;48.80;100550.63;117363;1185;21857;-56
2021/10/23 02:35:02;;;;;;;8.10;6.00;;;;;;;16.14;48.72;100548.88;117485;1185;21965;-56
2021/10/23 02:37:30;;;;;;;8.20;5.70;;;;;;;16.14;48.76;100548.01;117510;1184;23469;-58
2021/10/23 02:39:58;;;;;;;9.40;6.10;;;;;;;16.09;48.85;100552.42;117551;1184;23451;-57
2021/10/23 02:42:27;;;;;;;11.70;6.40;;;;;;;16.08;48.96;100551.05;117475;1183;23474;-56
2021/10/23 02:44:56;;;;;;;9.30;6.10;;;;;;;16.06;48.99;100553.74;117343;1183;23442;-57
2021/10/23 02:47:26;;;;;;;11.30;6.00;;;;;;;16.05;48.89;100554.84;117504;1185;23442;-56
2021/10/23 02:49:54;;;;;;;10.20;6.40;;;;;;;16.08;48.99;100559.16;117374;1183;22911;-58
2021/10/23 02:52:22;;;;;;;9.60;5.60;;;;;;;16.11;48.86;100558.01;117484;1183;24149;-56
2021/10/23 02:54:51;;;;;;;10.50;6.30;;;;;;;16.11;48.86;100562.61;117504;1182;23481;-58
2021/10/23 02:57:20;;;;;;;9.90;6.30;;;;;;;16.10;48.90;100564.78;117525;1182;23452;-58
2021/10/23 02:59:48;;;;;;;10.90;6.60;;;;;;;16.09;48.96;100565.35;117471;1185;21858;-57
2021/10/23 03:02:16;;;;;;;11.00;6.80;;;;;;;16.08;48.95;100563.59;117550;1183;23458;-57
2021/10/23 03:04:45;;;;;;;10.60;6.30;;;;;;;16.07;49.03;100564.52;117532;1182;23439;-57
2021/10/23 03:07:13;;;;;;;12.20;7.10;;;;;;;16.06;48.98;100560.66;117506;1185;23471;-58
2021/10/23 03:10:02;;;;;;;11.70;7.20;;;;;;;16.04;49.03;100567.08;117454;1184;22915;-56
2021/10/23 03:12:30;;;;;;;12.10;6.90;;;;;;;16.02;48.97;100559.37;117494;1186;23445;-58
2021/10/23 03:15:11;;;;;;;11.70;7.10;;;;;;;16.02;49.11;100559.70;117479;1185;23459;-56
2021/10/23 03:17:40;;;;;;;10.20;7.10;;;;;;;16.02;49.07;100557.60;117544;1179;23441;-56
2021/10/23 03:20:09;;;;;;;11.60;7.20;;;;;;;16.04;49.09;100563.73;117537;1182;24252;-56
2021/10/23 03:22:52;;;;;;;12.70;7.50;;;;;;;16.04;49.11;100568.14;117443;1179;23465;-57
2021/10/23 03:25:21;;;;;;;9.40;6.60;;;;;;;16.02;49.16;100571.59;117574;1185;23442;-58
2021/10/23 03:27:49;;;;;;;12.30;6.90;;;;;;;16.00;49.13;100574.46;117545;1183;23359;-56
2021/10/23 03:30:17;;;;;;;17.00;9.40;;;;;;;15.98;49.16;100573.66;117503;1186;21855;-56
2021/10/23 03:32:46;;;;;;;15.20;7.90;;;;;;;15.97;49.06;100574.57;117476;1182;21864;-58
2021/10/23 03:35:14;;;;;;;13.00;7.40;;;;;;;15.96;49.13;100578.30;117371;1182;24145;-58
2021/10/23 03:37:42;;;;;;;10.80;7.00;;;;;;;15.95;49.19;100577.27;117503;1182;23469;-55
2021/10/23 03:40:12;;;;;;;9.50;6.70;;;;;;;15.93;49.09;100574.67;117530;1185;23438;-56
2021/10/23 03:42:40;;;;;;;13.40;7.60;;;;;;;15.92;49.13;100575.77;117487;1182;22621;-57
2021/10/23 03:45:08;;;;;;;10.30;6.90;;;;;;;15.88;49.24;100579.60;117530;1183;22617;-56
2021/10/23 03:47:37;;;;;;;12.40;7.60;;;;;;;15.85;49.13;100578.08;117505;1185;24222;-55
2021/10/23 03:50:06;;;;;;;12.40;7.20;;;;;;;15.85;49.17;100571.73;117514;1182;24150;-58
2021/10/23 03:52:34;;;;;;;12.00;7.00;;;;;;;15.81;49.17;100577.14;117501;1182;22932;-56
2021/10/23 03:55:03;;;;;;;12.10;7.20;;;;;;;15.74;49.17;100581.08;117545;1182;24708;-57
2021/10/23 03:57:35;;;;;;;13.80;7.50;;;;;;;15.71;49.34;100572.66;117490;1184;21864;-57
2021/10/23 04:00:05;;;;;;;16.60;8.00;;;;;;;15.73;49.30;100572.63;117597;1183;23454;-57
2021/10/23 04:02:33;;;;;;;13.30;8.00;;;;;;;15.73;49.38;100582.15;117477;1176;21851;-58
2021/10/23 04:05:03;;;;;;;13.60;7.40;;;;;;;15.61;49.49;100578.82;117463;1186;23462;-57
2021/10/23 04:07:31;;;;;;;11.50;7.20;;;;;;;15.67;49.33;100577.06;117526;1185;21860;-57
2021/10/23 04:10:04;;;;;;;12.50;7.40;;;;;;;15.68;49.33;100578.95;117337;1185;24265;-57
2021/10/23 04:12:51;;;;;;;13.20;7.60;;;;;;;15.70;49.25;100584.38;117317;1188;21908;-57
2021/10/23 04:15:20;;;;;;;11.00;7.00;;;;;;;15.69;49.29;100585.11;117500;1182;24209;-56
2021/10/23 04:17:48;;;;;;;10.60;6.70;;;;;;;15.70;49.23;100584.39;117500;1183;23442;-57
2021/10/23 04:20:17;;;;;;;11.90;7.10;;;;;;;15.71;49.32;100586.64;117547;1182;24146;-56
2021/10/23 04:22:46;;;;;;;11.10;6.90;;;;;;;15.72;49.26;100590.33;117536;1183;23439;-56
2021/10/23 04:25:14;;;;;;;12.60;7.20;;;;;;;15.74;49.30;100589.20;117501;1186;22953;-57
2021/10/23 04:27:43;;;;;;;12.50;7.60;;;;;;;15.75;49.34;100590.76;117506;1185;24152;-57
2021/10/23 04:30:11;;;;;;;11.20;7.70;;;;;;;15.73;49.28;100591.17;117379;1185;21855;-57
2021/10/23 04:32:39;;;;;;;11.30;7.30;;;;;;;15.72;49.26;100596.89;117489;1183;23438;-56
2021/10/23 04:35:08;;;;;;;15.20;7.60;;;;;;;15.68;49.25;100596.46;117521;1184;22644;-56
2021/10/23 04:37:38;;;;;;;14.10;7.20;;;;;;;15.66;49.23;100599.02;117531;1182;22912;-56
2021/10/23 04:40:07;;;;;;;12.00;7.00;;;;;;;15.66;49.17;100598.48;117532;1185;21851;-56
2021/10/23 04:42:35;;;;;;;16.50;7.60;;;;;;;15.65;49.28;100597.27;117532;1186;23800;-56
2021/10/23 04:45:05;;;;;;;14.90;7.00;;;;;;;15.65;49.26;100600.82;117536;1183;21860;-56
2021/10/23 04:47:33;;;;;;;15.60;7.40;;;;;;;15.66;49.22;100599.90;117537;1183;21917;-56
2021/10/23 04:50:01;;;;;;;13.50;7.70;;;;;;;15.71;49.32;100605.58;117421;1184;21855;-57
2021/10/23 04:52:29;;;;;;;13.30;7.40;;;;;;;15.77;49.20;100610.69;117349;1185;21854;-56
2021/10/23 04:54:57;;;;;;;12.40;7.50;;;;;;;15.81;49.19;100613.26;117519;1185;21846;-56
2021/10/23 04:57:43;;;;;;;18.30;8.20;;;;;;;15.84;49.27;100615.81;117516;1179;22156;-56
2021/10/23 05:00:12;;;;;;;11.80;8.70;;;;;;;15.85;49.30;100618.78;117325;1184;24223;-57
2021/10/23 05:02:40;;;;;;;13.40;7.90;;;;;;;15.86;49.29;100622.14;117530;1185;21854;-58
2021/10/23 05:05:09;;;;;;;18.20;8.80;;;;;;;15.86;49.31;100627.80;117520;1184;21852;-57
2021/10/23 05:07:38;;;;;;;19.40;8.40;;;;;;;15.87;49.21;100631.32;117467;1184;21868;-58
2021/10/23 05:10:26;;;;;;;45.40;25.90;;;;;;;15.90;49.23;100638.67;117348;1185;21889;-56
2021/10/23 05:12:54;;;;;;;21.30;12.60;;;;;;;15.89;49.26;100638.68;117433;1183;22918;-57
2021/10/23 05:15:43;;;;;;;15.60;9.00;;;;;;;15.89;49.20;100643.11;117439;1184;21855;-57
2021/10/23 05:18:11;;;;;;;12.20;7.80;;;;;;;15.88;49.28;100648.11;117544;1183;23612;-56
2021/10/23 05:20:59;;;;;;;14.20;7.10;;;;;;;15.87;49.27;100653.09;117437;1185;21863;-56
2021/10/23 05:23:27;;;;;;;10.90;7.10;;;;;;;15.89;49.19;100657.27;117494;1182;24692;-58
2021/10/23 05:25:55;;;;;;;13.60;7.50;;;;;;;15.90;49.26;100657.94;117450;1186;21867;-56
2021/10/23 05:28:25;;;;;;;28.20;16.70;;;;;;;15.86;49.18;100668.83;117507;1185;23454;-59
2021/10/23 05:30:53;;;;;;;33.50;20.20;;;;;;;15.82;49.12;100671.95;117386;1182;23442;-58
2021/10/23 05:33:21;;;;;;;25.90;14.90;;;;;;;15.77;49.09;100672.61;117501;1185;21866;-58
2021/10/23 05:35:50;;;;;;;21.00;12.90;;;;;;;15.75;49.20;100676.58;117392;1182;24204;-57
2021/10/23 05:38:19;;;;;;;14.30;9.80;;;;;;;15.73;49.21;100675.90;117519;1185;23523;-56
2021/10/23 05:40:47;;;;;;;17.30;9.40;;;;;;;15.73;49.22;100685.63;117495;1179;23447;-56
2021/10/23 05:43:15;;;;;;;19.00;11.00;;;;;;;15.73;49.43;100695.20;117520;1183;23438;-60
2021/10/23 05:45:44;;;;;;;19.20;11.50;;;;;;;15.69;49.41;100697.61;117604;1183;24150;-57
2021/10/23 05:48:12;;;;;;;18.40;10.50;;;;;;;15.70;49.41;100697.61;117448;1183;24160;-57
2021/10/23 05:50:41;;;;;;;16.60;9.40;;;;;;;15.70;49.44;100699.70;117427;1186;24224;-59
2021/10/23 05:53:09;;;;;;;17.20;10.00;;;;;;;15.73;49.53;100708.64;117446;1185;21852;-57
2021/10/23 05:55:37;;;;;;;14.40;9.50;;;;;;;15.76;49.57;100709.80;117565;1182;23547;-59
2021/10/23 05:58:06;;;;;;;14.00;8.20;;;;;;;15.78;49.43;100711.35;117585;1182;23618;-59
2021/10/23 06:00:35;;;;;;;15.30;8.70;;;;;;;15.79;49.49;100718.93;117494;1185;22802;-57
2021/10/23 06:03:04;;;;;;;15.60;9.60;;;;;;;15.79;49.43;100721.76;117525;1185;22901;-57
2021/10/23 06:05:32;;;;;;;14.00;9.20;;;;;;;15.78;49.42;100723.55;117490;1183;21842;-58
2021/10/23 06:08:02;;;;;;;14.50;8.40;;;;;;;15.77;49.46;100732.42;117461;1180;23446;-59
2021/10/23 06:10:44;;;;;;;16.40;10.00;;;;;;;15.75;49.47;100739.73;117519;1183;23457;-58
2021/10/23 06:13:12;;;;;;;18.10;9.40;;;;;;;15.71;49.37;100744.79;117539;1186;23567;-60
2021/10/23 06:15:42;;;;;;;13.90;8.50;;;;;;;15.64;49.42;100746.08;117468;1182;23536;-58
2021/10/23 06:18:13;;;;;;;13.90;8.30;;;;;;;15.58;49.29;100748.16;117504;1182;22715;-58
2021/10/23 06:21:01;;;;;;;17.70;9.00;;;;;;;15.53;49.43;100753.59;117461;1183;22911;-58
2021/10/23 06:23:32;;;;;;;11.80;7.80;;;;;;;15.51;49.45;100755.98;117426;1183;24162;-58
2021/10/23 06:26:00;;;;;;;;;;;;;;;15.48;49.42;100756.57;117507;1182;21889;-61
2021/10/23 06:28:29;;;;;;;24.90;7.70;;;;;;;15.46;49.43;100760.51;117455;1184;24140;-58
2021/10/23 06:31:18;;;;;;;29.20;6.30;;;;;;;15.46;49.50;100758.55;117386;1185;23583;-62
2021/10/23 06:33:47;;;;;;;10.80;5.20;;;;;;;15.51;49.64;100757.02;117518;1183;24139;-62
2021/10/23 06:36:15;;;;;;;13.60;5.40;;;;;;;15.53;49.51;100755.20;117564;1185;21855;-62
2021/10/23 06:39:03;;;;;;;10.50;5.00;;;;;;;15.50;49.41;100760.39;117411;1185;22081;-58
2021/10/23 06:41:35;;;;;;;7.90;4.90;;;;;;;15.44;49.42;100759.33;117459;1185;24152;-58
2021/10/23 06:44:06;;;;;;;10.00;5.00;;;;;;;15.41;49.56;100766.66;119374;1183;22604;-58
2021/10/23 06:46:54;;;;;;;;;;;;;;;15.39;49.56;100770.77;117478;1185;23547;-62
2021/10/23 06:49:23;;;;;;;8.80;4.50;;;;;;;15.39;49.52;100772.56;117515;1182;23466;-62
2021/10/23 06:51:52;;;;;;;7.50;4.30;;;;;;;15.36;49.58;100774.23;117523;1183;23451;-58
2021/10/23 06:54:20;;;;;;;9.80;4.50;;;;;;;15.34;49.55;100770.20;117440;1185;22911;-58
2021/10/23 06:56:51;;;;;;;8.50;4.30;;;;;;;15.32;49.53;100771.84;117458;1182;23442;-62
2021/10/23 06:59:19;;;;;;;8.90;4.30;;;;;;;15.32;49.68;100775.02;117373;1182;21857;-62
2021/10/23 07:01:47;;;;;;;9.90;4.70;;;;;;;15.30;49.67;100772.59;117478;1182;23563;-59
2021/10/23 07:04:16;;;;;;;7.60;4.50;;;;;;;15.27;49.66;100775.84;117523;1184;21851;-58
2021/10/23 07:06:44;;;;;;;9.70;4.50;;;;;;;15.25;49.55;100778.52;117539;1182;21845;-58
2021/10/23 07:09:12;;;;;;;10.80;4.90;;;;;;;15.24;49.55;100778.04;117520;1183;21892;-62
2021/10/23 07:12:01;;;;;;;12.20;4.80;;;;;;;15.24;49.69;100783.70;117515;1186;22912;-62
2021/10/23 07:14:29;;;;;;;9.10;5.10;;;;;;;15.22;49.54;100786.94;117528;1183;22911;-62
2021/10/23 07:17:17;;;;;;;8.60;4.90;;;;;;;15.20;49.61;100785.39;117469;1186;21857;-61
2021/10/23 07:19:45;;;;;;;9.40;4.70;;;;;;;15.18;49.70;100778.02;117443;1182;23544;-58
2021/10/23 07:22:15;;;;;;;9.50;5.10;;;;;;;15.19;49.84;100773.92;117364;1185;21858;-63
2021/10/23 07:25:03;;;;;;;8.20;4.80;;;;;;;15.23;49.85;100765.89;117408;1185;21877;-62
2021/10/23 07:27:32;;;;;;;9.40;5.50;;;;;;;15.25;49.87;100766.68;117364;1185;21864;-61
2021/10/23 07:30:00;;;;;;;9.80;5.50;;;;;;;15.28;49.87;100767.48;117486;1185;23606;-61
2021/10/23 07:32:28;;;;;;;11.30;5.50;;;;;;;15.31;49.79;100772.73;117520;1184;23442;-62
2021/10/23 07:34:57;;;;;;;14.00;6.10;;;;;;;15.34;49.86;100771.96;117526;1183;22912;-58
2021/10/23 07:37:25;;;;;;;10.90;6.70;;;;;;;15.38;49.92;100772.23;117579;1185;21865;-58
2021/10/23 07:39:54;;;;;;;11.40;6.30;;;;;;;15.42;49.86;100769.10;117459;1183;21858;-61
2021/10/23 07:42:22;;;;;;;11.10;5.90;;;;;;;15.48;49.97;100765.92;117530;1186;21857;-60
2021/10/23 07:44:51;;;;;;;10.60;6.60;;;;;;;15.53;50.05;100765.97;117474;1185;21886;-60
2021/10/23 07:47:21;;;;;;;13.50;8.00;;;;;;;15.61;50.18;100767.18;117532;1186;21852;-62
2021/10/23 07:49:49;;;;;;;16.00;8.10;;;;;;;15.67;50.13;100768.25;117521;1184;21855;-61
2021/10/23 07:52:17;;;;;;;18.90;8.40;;;;;;;15.73;50.22;100769.67;117365;1185;21865;-61
2021/10/23 07:54:56;;;;;;;19.70;9.70;;;;;;;15.82;50.27;100766.25;117396;1182;23638;-58
2021/10/23 07:57:25;;;;;;;17.70;10.00;;;;;;;15.91;50.34;100766.55;117555;1185;21858;-59
2021/10/23 07:59:53;;;;;;;24.70;11.60;;;;;;;16.02;50.32;100770.66;117397;1182;22811;-61
2021/10/23 08:02:21;;;;;;;20.60;10.50;;;;;;;16.11;50.42;100776.27;117376;1184;22933;-60
2021/10/23 08:04:55;;;;;;;18.60;12.90;;;;;;;16.22;50.42;100773.83;117394;1182;23436;-58
2021/10/23 08:07:42;;;;;;;21.50;13.20;;;;;;;16.29;50.40;100768.11;117397;1185;24163;-59
2021/10/23 08:10:11;;;;;;;22.20;12.30;;;;;;;16.33;50.35;100763.22;117555;1185;21937;-59
2021/10/23 08:13:00;;;;;;;18.40;12.20;;;;;;;16.41;50.28;100763.34;117460;1182;22620;-60
2021/10/23 08:15:49;;;;;;;17.60;11.50;;;;;;;16.47;50.30;100764.92;117725;1184;21856;-59
2021/10/23 08:18:17;;;;;;;16.10;11.00;;;;;;;16.52;50.44;100763.73;117510;1183;23566;-60
2021/10/23 08:21:05;;;;;;;16.70;10.50;;;;;;;16.58;50.42;100768.85;117462;1185;23004;-60
2021/10/23 08:23:33;;;;;;;15.50;10.60;;;;;;;16.59;50.44;100772.15;117451;1185;21862;-59
2021/10/23 08:26:02;;;;;;;14.80;10.50;;;;;;;16.60;50.43;100770.20;117385;1185;23543;-58
2021/10/23 08:28:33;;;;;;;15.20;10.10;;;;;;;16.63;50.36;100775.96;117464;1182;21848;-60
2021/10/23 08:31:02;;;;;;;14.50;9.20;;;;;;;16.64;50.29;100774.33;117413;1185;21865;-58
2021/10/23 08:33:31;;;;;;;13.10;9.00;;;;;;;16.63;50.31;100775.59;117437;1185;23516;-58
2021/10/23 08:36:00;;;;;;;14.30;8.60;;;;;;;16.64;50.37;100776.09;117413;1176;21886;-58
2021/10/23 08:38:49;;;;;;;12.70;8.50;;;;;;;16.67;50.36;100780.45;117479;1184;22978;-59
2021/10/23 08:41:17;;;;;;;15.40;8.20;;;;;;;16.69;50.51;100788.88;117564;1185;23573;-60
2021/10/23 08:43:47;;;;;;;13.50;7.40;;;;;;;16.75;50.50;100791.91;117403;1185;22405;-59
2021/10/23 08:46:22;;;;;;;12.90;8.10;;;;;;;16.78;50.46;100795.69;117474;1184;21846;-60
2021/10/23 08:48:52;;;;;;;14.10;9.10;;;;;;;16.82;50.44;100799.45;117394;1183;24379;-59
2021/10/23 08:51:21;;;;;;;15.00;9.80;;;;;;;16.86;50.54;100798.45;117492;1179;21859;-60
2021/10/23 08:53:50;;;;;;;14.40;9.20;;;;;;;16.90;50.48;100797.60;117575;1181;22912;-60
2021/10/23 08:56:18;;;;;;;12.20;7.50;;;;;;;16.92;50.54;100799.33;117519;1185;23466;-57
2021/10/23 08:58:48;;;;;;;15.30;8.00;;;;;;;16.89;50.53;100795.89;117414;1183;24204;-58
2021/10/23 09:01:36;;;;;;;15.60;7.60;;;;;;;16.89;50.47;100801.54;117490;1186;22966;-57
2021/10/23 09:04:04;;;;;;;10.70;7.10;;;;;;;16.85;50.52;100803.98;117529;1186;21851;-57
2021/10/23 09:06:34;;;;;;;12.10;6.50;;;;;;;16.85;50.61;100807.89;117606;1185;21855;-60
2021/10/23 09:09:05;;;;;;;17.00;7.00;;;;;;;16.85;50.63;100811.42;117429;1182;23657;-57
2021/10/23 09:11:46;;;;;;;16.10;6.00;;;;;;;16.85;50.62;100812.84;117392;1179;23450;-60
2021/10/23 09:14:19;;;;;;;12.80;5.60;;;;;;;16.87;50.60;100811.54;117466;1185;21854;-59
2021/10/23 09:17:12;;;;;;;16.70;8.20;;;;;;;16.95;50.70;100812.37;117398;1176;24825;-59
2021/10/23 09:20:10;;;;;;;23.40;8.70;;;;;;;17.04;50.78;100809.06;117486;1185;21849;-57
2021/10/23 09:22:40;;;;;;;21.70;8.00;;;;;;;17.15;50.79;100808.20;117508;1184;22983;-60
2021/10/23 09:25:08;;;;;;;39.70;9.90;;;;;;;17.25;50.83;100806.63;117516;1185;21864;-60
2021/10/23 09:27:50;;;;;;;23.80;8.60;;;;;;;17.39;50.74;100807.04;117524;1182;23567;-61
2021/10/23 09:30:26;;;;;;;160.40;20.00;;;;;;;17.46;50.74;100812.68;117532;1183;24291;-57
2021/10/23 09:32:56;;;;;;;17.50;9.30;;;;;;;17.55;50.73;100812.02;117513;1184;24246;-60
2021/10/23 09:35:28;;;;;;;15.10;8.30;;;;;;;17.63;50.81;100811.91;117451;1184;24150;-60
2021/10/23 09:37:58;;;;;;;16.30;9.20;;;;;;;17.60;50.81;100813.61;117515;1185;23544;-60
2021/10/23 09:40:28;;;;;;;10.80;6.30;;;;;;;17.63;50.94;100814.41;117524;1184;22404;-57
2021/10/23 09:43:17;;;;;;;11.90;5.80;;;;;;;17.62;50.82;100813.38;117542;1183;23659;-57
2021/10/23 09:45:58;;;;;;;9.80;5.10;;;;;;;17.61;50.88;100814.64;117609;1186;21858;-57
2021/10/23 09:48:50;;;;;;;11.10;5.40;;;;;;;17.60;50.93;100815.55;117494;1188;21888;-57
2021/10/23 09:51:28;;;;;;;9.80;6.00;;;;;;;17.62;50.99;100817.45;117490;1182;23442;-60
2021/10/23 09:53:58;;;;;;;13.40;6.30;;;;;;;17.68;50.99;100814.76;117520;1185;23442;-57
2021/10/23 09:56:30;;;;;;;12.70;7.50;;;;;;;17.75;51.02;100810.05;117438;1183;21875;-60
2021/10/23 09:59:02;;;;;;;10.20;6.60;;;;;;;17.82;50.95;100810.88;117443;1183;23589;-61
2021/10/23 10:01:31;;;;;;;9.20;6.60;;;;;;;17.88;50.95;100812.27;117508;1184;24149;-56
2021/10/23 10:04:05;;;;;;;12.50;6.50;;;;;;;17.90;50.89;100811.48;117421;1186;23626;-56
2021/10/23 10:06:33;;;;;;;14.40;5.90;;;;;;;17.94;50.91;100805.84;117333;1186;21855;-55
2021/10/23 10:09:10;;;;;;;10.70;6.40;;;;;;;17.95;50.89;100804.55;117394;1183;23522;-55
2021/10/23 10:11:40;;;;;;;11.50;6.50;;;;;;;17.98;50.94;100801.09;117378;1185;24263;-55
2021/10/23 10:14:34;;;;;;;12.00;6.90;;;;;;;18.00;50.95;100795.71;117440;1185;21852;-56
2021/10/23 10:17:03;;;;;;;10.40;7.20;;;;;;;18.06;51.10;100795.51;117501;1184;21866;-56
2021/10/23 10:19:51;;;;;;;11.30;7.70;;;;;;;18.13;51.17;100792.04;117488;1184;21879;-56
2021/10/23 10:22:20;;;;;;;12.80;7.60;;;;;;;18.21;51.19;100784.10;117499;1185;21848;-57
2021/10/23 10:24:49;;;;;;;10.80;7.20;;;;;;;18.30;51.16;100784.85;117579;1186;22638;-58
2021/10/23 10:27:19;;;;;;;13.00;7.10;;;;;;;18.38;51.12;100786.85;117505;1185;24300;-58
2021/10/23 10:29:56;;;;;;;11.10;7.10;;;;;;;18.38;51.08;100783.29;117364;1185;22632;-56
2021/10/23 10:32:29;;;;;;;9.20;6.10;;;;;;;18.42;51.06;100782.80;117487;1180;24230;-56
2021/10/23 10:35:19;;;;;;;10.20;5.80;;;;;;;18.48;51.11;100781.67;117496;1183;24171;-56
2021/10/23 10:43:08;;;;;;;9.90;5.40;;;;;;;18.71;51.16;100780.43;117447;1185;21947;-56
2021/10/23 10:45:51;;;;;;;10.50;6.00;;;;;;;18.77;51.19;100779.83;117427;1184;21863;-56
2021/10/23 10:48:29;;;;;;;9.70;4.90;;;;;;;18.84;51.21;100777.77;117393;1176;23615;-58
2021/10/23 10:51:00;;;;;;;10.30;5.10;;;;;;;18.88;51.02;100775.81;117482;1185;24221;-59
2021/10/23 10:53:35;;;;;;;9.40;5.40;;;;;;;18.90;51.07;100764.54;117484;1186;23544;-58
2021/10/23 10:56:23;;;;;;;10.30;5.30;;;;;;;18.96;51.07;100755.45;117349;1186;21857;-59
2021/10/23 10:58:56;;;;;;;9.60;5.10;;;;;;;19.00;51.10;100755.27;117305;1186;21852;-57
2021/10/23 11:01:30;;;;;;;10.70;4.90;;;;;;;19.03;51.04;100758.34;117485;1182;23540;-59
2021/10/23 11:04:02;;;;;;;10.10;5.40;;;;;;;19.04;50.98;100755.81;117563;1185;21864;-57
2021/10/23 11:06:35;;;;;;;8.50;4.70;;;;;;;19.06;51.10;100759.14;117489;1182;22912;-59
2021/10/23 11:09:16;;;;;;;8.90;4.60;;;;;;;19.13;51.14;100756.35;117336;1185;22916;-59
2021/10/23 11:11:44;;;;;;;8.50;3.90;;;;;;;19.24;51.36;100763.73;117502;1186;21892;-59
2021/10/23 11:14:20;;;;;;;8.00;3.50;;;;;;;19.33;51.24;100757.44;117375;1185;21889;-59
2021/10/23 11:17:10;;;;;;;7.90;3.60;;;;;;;19.45;51.28;100753.20;117404;1186;23251;-57
2021/10/23 11:19:53;;;;;;;9.00;3.20;;;;;;;19.52;51.18;100750.79;117486;1183;23451;-59
2021/10/23 11:22:31;;;;;;;8.20;3.30;;;;;;;19.60;51.15;100748.13;117503;1186;22618;-60
2021/10/23 11:25:24;;;;;;;5.60;2.40;;;;;;;19.69;51.04;100747.36;117496;1185;21857;-57
2021/10/23 11:28:11;;;;;;;7.50;2.40;;;;;;;19.76;51.00;100746.14;117412;1186;23553;-59
2021/10/23 11:30:41;;;;;;;5.20;2.60;;;;;;;19.84;51.07;100748.30;117524;1182;22994;-57
2021/10/23 11:33:13;;;;;;;5.60;2.30;;;;;;;19.91;51.06;100744.06;117390;1184;23642;-59
2021/10/23 11:35:47;;;;;;;8.10;2.50;;;;;;;20.00;51.02;100743.52;117482;1185;24140;-57
2021/10/23 11:38:27;;;;;;;8.50;2.40;;;;;;;20.11;51.07;100739.25;117423;1185;21857;-58
2021/10/23 11:40:57;;;;;;;8.40;2.50;;;;;;;20.22;51.28;100732.51;117455;1176;23471;-57